sensor_id;sensor_type;location;lat;lon;timestamp;P1;durP1;ratioP1;P2;durP2;ratioP2
47353;SDS011;50657;48.830;2.282;2022-11-15T00:00:41;10.07;;;5.18;;
47353;SDS011;50657;48.830;2.282;2022-11-15T00:03:27;6.38;;;4.70;;
47353;SDS011;50657;48.830;2.282;2022-11-15T00:06:12;5.88;;;4.30;;
47353;SDS011;50657;48.830;2.282;2022-11-15T00:08:58;6.47;;;3.63;;
47353;SDS011;50657;48.830;2.282;2022-11-15T00:11:44;10.95;;;4.10;;
47353;SDS011;50657;48.830;2.282;2022-11-15T00:14:31;6.20;;;2.58;;
47353;SDS011;50657;48.830;2.282;2022-11-15T00:17:17;7.38;;;3.00;;
47353;SDS011;50657;48.830;2.282;2022-11-15T00:20:02;6.38;;;3.13;;
47353;SDS011;50657;48.830;2.282;2022-11-15T00:22:48;6.40;;;4.63;;
47353;SDS011;50657;48.830;2.282;2022-11-15T00:25:34;3.45;;;2.10;;
47353;SDS011;50657;48.830;2.282;2022-11-15T00:28:20;5.38;;;2.53;;
47353;SDS011;50657;48.830;2.282;2022-11-15T00:31:07;5.50;;;1.67;;
47353;SDS011;50657;48.830;2.282;2022-11-15T00:33:56;5.97;;;2.17;;
47353;SDS011;50657;48.830;2.282;2022-11-15T00:36:41;8.20;;;1.20;;
47353;SDS011;50657;48.830;2.282;2022-11-15T00:39:27;1.52;;;1.02;;
47353;SDS011;50657;48.830;2.282;2022-11-15T00:42:12;5.93;;;1.80;;
47353;SDS011;50657;48.830;2.282;2022-11-15T00:44:58;1.52;;;0.73;;
47353;SDS011;50657;48.830;2.282;2022-11-15T00:47:45;1.08;;;0.52;;
47353;SDS011;50657;48.830;2.282;2022-11-15T00:50:31;1.85;;;0.90;;
47353;SDS011;50657;48.830;2.282;2022-11-15T00:53:16;3.65;;;0.73;;
47353;SDS011;50657;48.830;2.282;2022-11-15T00:56:02;2.33;;;0.60;;
47353;SDS011;50657;48.830;2.282;2022-11-15T00:58:48;3.30;;;1.08;;
47353;SDS011;50657;48.830;2.282;2022-11-15T01:01:34;1.52;;;0.43;;
47353;SDS011;50657;48.830;2.282;2022-11-15T01:04:21;0.32;;;0.32;;
47353;SDS011;50657;48.830;2.282;2022-11-15T01:07:07;1.55;;;0.45;;
47353;SDS011;50657;48.830;2.282;2022-11-15T01:09:52;2.10;;;0.50;;
47353;SDS011;50657;48.830;2.282;2022-11-15T01:12:38;1.65;;;0.30;;
47353;SDS011;50657;48.830;2.282;2022-11-15T01:15:23;0.80;;;0.38;;
47353;SDS011;50657;48.830;2.282;2022-11-15T01:18:09;2.30;;;0.20;;
47353;SDS011;50657;48.830;2.282;2022-11-15T01:20:56;0.90;;;0.20;;
47353;SDS011;50657;48.830;2.282;2022-11-15T01:26:27;0.47;;;0.30;;
47353;SDS011;50657;48.830;2.282;2022-11-15T01:29:12;4.38;;;0.28;;
47353;SDS011;50657;48.830;2.282;2022-11-15T01:31:57;2.20;;;0.13;;
47353;SDS011;50657;48.830;2.282;2022-11-15T01:34:43;0.50;;;0.32;;
47353;SDS011;50657;48.830;2.282;2022-11-15T01:37:30;2.75;;;0.30;;
47353;SDS011;50657;48.830;2.282;2022-11-15T01:40:16;2.65;;;0.25;;
47353;SDS011;50657;48.830;2.282;2022-11-15T01:46:09;1.38;;;0.30;;
47353;SDS011;50657;48.830;2.282;2022-11-15T01:49:10;0.47;;;0.10;;
47353;SDS011;50657;48.830;2.282;2022-11-15T01:52:00;1.08;;;0.10;;
47353;SDS011;50657;48.830;2.282;2022-11-15T01:54:50;0.13;;;0.10;;
47353;SDS011;50657;48.830;2.282;2022-11-15T01:57:40;0.68;;;0.10;;
47353;SDS011;50657;48.830;2.282;2022-11-15T02:00:28;1.52;;;0.10;;
47353;SDS011;50657;48.830;2.282;2022-11-15T02:03:15;1.40;;;0.10;;
47353;SDS011;50657;48.830;2.282;2022-11-15T02:06:00;0.75;;;0.13;;
47353;SDS011;50657;48.830;2.282;2022-11-15T02:08:48;1.42;;;0.10;;
47353;SDS011;50657;48.830;2.282;2022-11-15T02:11:36;0.30;;;0.10;;
47353;SDS011;50657;48.830;2.282;2022-11-15T02:14:22;1.23;;;0.10;;
47353;SDS011;50657;48.830;2.282;2022-11-15T02:17:13;0.68;;;0.10;;
47353;SDS011;50657;48.830;2.282;2022-11-15T02:23:32;4.97;;;0.20;;
47353;SDS011;50657;48.830;2.282;2022-11-15T02:26:50;3.78;;;0.68;;
47353;SDS011;50657;48.830;2.282;2022-11-15T02:30:18;0.20;;;0.10;;
47353;SDS011;50657;48.830;2.282;2022-11-15T02:33:08;1.20;;;0.10;;
47353;SDS011;50657;48.830;2.282;2022-11-15T02:36:00;2.17;;;0.10;;
47353;SDS011;50657;48.830;2.282;2022-11-15T02:38:50;0.20;;;0.10;;
47353;SDS011;50657;48.830;2.282;2022-11-15T02:41:45;0.10;;;0.10;;
47353;SDS011;50657;48.830;2.282;2022-11-15T02:44:36;1.88;;;0.10;;
47353;SDS011;50657;48.830;2.282;2022-11-15T02:47:29;1.10;;;0.10;;
47353;SDS011;50657;48.830;2.282;2022-11-15T02:50:20;0.95;;;0.28;;
47353;SDS011;50657;48.830;2.282;2022-11-15T02:53:08;0.85;;;0.10;;
47353;SDS011;50657;48.830;2.282;2022-11-15T02:55:54;0.52;;;0.10;;
47353;SDS011;50657;48.830;2.282;2022-11-15T02:58:51;0.98;;;0.10;;
47353;SDS011;50657;48.830;2.282;2022-11-15T03:01:55;2.38;;;0.95;;
47353;SDS011;50657;48.830;2.282;2022-11-15T03:04:55;1.67;;;0.75;;
47353;SDS011;50657;48.830;2.282;2022-11-15T03:07:44;0.77;;;0.10;;
47353;SDS011;50657;48.830;2.282;2022-11-15T03:10:41;1.65;;;0.10;;
47353;SDS011;50657;48.830;2.282;2022-11-15T03:13:33;0.35;;;0.17;;
47353;SDS011;50657;48.830;2.282;2022-11-15T03:16:24;0.10;;;0.10;;
47353;SDS011;50657;48.830;2.282;2022-11-15T03:19:17;0.85;;;0.10;;
47353;SDS011;50657;48.830;2.282;2022-11-15T03:22:08;1.45;;;0.10;;
47353;SDS011;50657;48.830;2.282;2022-11-15T03:24:57;0.32;;;0.10;;
47353;SDS011;50657;48.830;2.282;2022-11-15T03:27:46;0.28;;;0.10;;
47353;SDS011;50657;48.830;2.282;2022-11-15T03:30:35;1.95;;;0.10;;
47353;SDS011;50657;48.830;2.282;2022-11-15T03:33:22;0.20;;;0.10;;
47353;SDS011;50657;48.830;2.282;2022-11-15T03:36:08;1.17;;;0.10;;
47353;SDS011;50657;48.830;2.282;2022-11-15T03:38:56;1.45;;;0.10;;
47353;SDS011;50657;48.830;2.282;2022-11-15T03:41:46;1.48;;;0.80;;
47353;SDS011;50657;48.830;2.282;2022-11-15T03:44:36;3.03;;;0.20;;
47353;SDS011;50657;48.830;2.282;2022-11-15T03:47:27;1.40;;;0.10;;
47353;SDS011;50657;48.830;2.282;2022-11-15T03:50:18;1.60;;;0.10;;
47353;SDS011;50657;48.830;2.282;2022-11-15T03:53:04;0.30;;;0.10;;
47353;SDS011;50657;48.830;2.282;2022-11-15T03:55:52;0.20;;;0.10;;
47353;SDS011;50657;48.830;2.282;2022-11-15T03:58:37;0.90;;;0.10;;
47353;SDS011;50657;48.830;2.282;2022-11-15T04:01:23;2.30;;;0.10;;
47353;SDS011;50657;48.830;2.282;2022-11-15T04:04:08;0.43;;;0.10;;
47353;SDS011;50657;48.830;2.282;2022-11-15T04:06:54;0.70;;;0.10;;
47353;SDS011;50657;48.830;2.282;2022-11-15T04:09:39;0.20;;;0.10;;
47353;SDS011;50657;48.830;2.282;2022-11-15T04:12:41;0.35;;;0.30;;
47353;SDS011;50657;48.830;2.282;2022-11-15T04:15:30;0.75;;;0.10;;
47353;SDS011;50657;48.830;2.282;2022-11-15T04:18:15;1.45;;;0.10;;
47353;SDS011;50657;48.830;2.282;2022-11-15T04:21:01;1.75;;;0.20;;
47353;SDS011;50657;48.830;2.282;2022-11-15T04:24:05;0.98;;;0.20;;
47353;SDS011;50657;48.830;2.282;2022-11-15T04:27:00;0.68;;;0.30;;
47353;SDS011;50657;48.830;2.282;2022-11-15T04:29:47;1.38;;;1.00;;
47353;SDS011;50657;48.830;2.282;2022-11-15T04:32:33;2.38;;;0.10;;
47353;SDS011;50657;48.830;2.282;2022-11-15T04:35:18;1.45;;;0.10;;
47353;SDS011;50657;48.830;2.282;2022-11-15T04:38:05;0.17;;;0.10;;
47353;SDS011;50657;48.830;2.282;2022-11-15T04:40:51;1.10;;;0.10;;
47353;SDS011;50657;48.830;2.282;2022-11-15T04:43:37;2.53;;;1.00;;
47353;SDS011;50657;48.830;2.282;2022-11-15T04:46:24;0.10;;;0.10;;
47353;SDS011;50657;48.830;2.282;2022-11-15T04:49:10;1.65;;;0.10;;
47353;SDS011;50657;48.830;2.282;2022-11-15T04:51:55;0.25;;;0.10;;
47353;SDS011;50657;48.830;2.282;2022-11-15T04:54:41;0.35;;;0.20;;
47353;SDS011;50657;48.830;2.282;2022-11-15T04:57:26;1.60;;;0.77;;
47353;SDS011;50657;48.830;2.282;2022-11-15T05:00:13;5.38;;;0.20;;
47353;SDS011;50657;48.830;2.282;2022-11-15T05:03:01;1.70;;;0.25;;
47353;SDS011;50657;48.830;2.282;2022-11-15T05:06:05;1.25;;;0.10;;
47353;SDS011;50657;48.830;2.282;2022-11-15T05:08:51;0.65;;;0.10;;
47353;SDS011;50657;48.830;2.282;2022-11-15T05:11:37;0.20;;;0.10;;
47353;SDS011;50657;48.830;2.282;2022-11-15T05:14:22;0.90;;;0.17;;
47353;SDS011;50657;48.830;2.282;2022-11-15T05:17:08;5.88;;;0.40;;
47353;SDS011;50657;48.830;2.282;2022-11-15T05:22:41;1.23;;;0.00;;
47353;SDS011;50657;48.830;2.282;2022-11-15T05:25:27;0.83;;;0.10;;
47353;SDS011;50657;48.830;2.282;2022-11-15T05:28:13;1.77;;;0.10;;
47353;SDS011;50657;48.830;2.282;2022-11-15T05:31:00;3.83;;;0.10;;
47353;SDS011;50657;48.830;2.282;2022-11-15T05:33:46;4.78;;;0.10;;
47353;SDS011;50657;48.830;2.282;2022-11-15T05:36:36;6.35;;;0.15;;
47353;SDS011;50657;48.830;2.282;2022-11-15T05:39:22;0.63;;;0.00;;
47353;SDS011;50657;48.830;2.282;2022-11-15T05:42:10;0.57;;;0.10;;
47353;SDS011;50657;48.830;2.282;2022-11-15T05:44:57;0.52;;;0.05;;
47353;SDS011;50657;48.830;2.282;2022-11-15T05:50:30;0.85;;;0.10;;
47353;SDS011;50657;48.830;2.282;2022-11-15T05:53:18;0.15;;;0.10;;
47353;SDS011;50657;48.830;2.282;2022-11-15T05:56:06;2.50;;;0.20;;
47353;SDS011;50657;48.830;2.282;2022-11-15T05:58:53;5.10;;;0.10;;
47353;SDS011;50657;48.830;2.282;2022-11-15T06:01:41;3.35;;;0.25;;
47353;SDS011;50657;48.830;2.282;2022-11-15T06:04:27;6.00;;;0.27;;
47353;SDS011;50657;48.830;2.282;2022-11-15T06:07:13;2.33;;;0.10;;
47353;SDS011;50657;48.830;2.282;2022-11-15T06:10:00;1.65;;;0.10;;
47353;SDS011;50657;48.830;2.282;2022-11-15T06:12:46;2.25;;;0.25;;
47353;SDS011;50657;48.830;2.282;2022-11-15T06:15:32;0.20;;;0.15;;
47353;SDS011;50657;48.830;2.282;2022-11-15T06:18:18;4.07;;;0.35;;
47353;SDS011;50657;48.830;2.282;2022-11-15T06:21:03;2.90;;;0.10;;
47353;SDS011;50657;48.830;2.282;2022-11-15T06:23:49;2.65;;;0.20;;
47353;SDS011;50657;48.830;2.282;2022-11-15T06:26:36;2.97;;;0.10;;
47353;SDS011;50657;48.830;2.282;2022-11-15T06:29:22;1.30;;;0.10;;
47353;SDS011;50657;48.830;2.282;2022-11-15T06:32:07;0.70;;;0.40;;
47353;SDS011;50657;48.830;2.282;2022-11-15T06:34:53;1.42;;;0.10;;
47353;SDS011;50657;48.830;2.282;2022-11-15T06:37:38;3.95;;;0.17;;
47353;SDS011;50657;48.830;2.282;2022-11-15T06:40:24;3.38;;;0.10;;
47353;SDS011;50657;48.830;2.282;2022-11-15T06:43:11;3.03;;;0.30;;
47353;SDS011;50657;48.830;2.282;2022-11-15T06:45:57;3.40;;;0.17;;
47353;SDS011;50657;48.830;2.282;2022-11-15T06:48:43;4.18;;;0.38;;
47353;SDS011;50657;48.830;2.282;2022-11-15T06:51:28;3.40;;;0.20;;
47353;SDS011;50657;48.830;2.282;2022-11-15T06:54:14;1.85;;;0.40;;
47353;SDS011;50657;48.830;2.282;2022-11-15T06:56:59;4.78;;;0.25;;
47353;SDS011;50657;48.830;2.282;2022-11-15T06:59:46;0.65;;;0.20;;
47353;SDS011;50657;48.830;2.282;2022-11-15T07:02:32;1.08;;;0.90;;
47353;SDS011;50657;48.830;2.282;2022-11-15T07:05:17;3.25;;;0.63;;
47353;SDS011;50657;48.830;2.282;2022-11-15T07:08:03;0.98;;;0.20;;
47353;SDS011;50657;48.830;2.282;2022-11-15T07:10:49;5.50;;;1.08;;
47353;SDS011;50657;48.830;2.282;2022-11-15T07:13:35;2.63;;;0.47;;
47353;SDS011;50657;48.830;2.282;2022-11-15T07:19:08;61.17;;;22.90;;
47353;SDS011;50657;48.830;2.282;2022-11-15T07:21:54;69.13;;;27.75;;
47353;SDS011;50657;48.830;2.282;2022-11-15T07:24:39;80.47;;;34.45;;
47353;SDS011;50657;48.830;2.282;2022-11-15T07:27:25;105.07;;;42.92;;
47353;SDS011;50657;48.830;2.282;2022-11-15T07:30:11;109.30;;;44.25;;
47353;SDS011;50657;48.830;2.282;2022-11-15T07:33:00;110.90;;;47.78;;
47353;SDS011;50657;48.830;2.282;2022-11-15T07:35:46;124.55;;;52.10;;
47353;SDS011;50657;48.830;2.282;2022-11-15T07:38:33;122.28;;;56.47;;
47353;SDS011;50657;48.830;2.282;2022-11-15T07:41:19;118.32;;;53.88;;
47353;SDS011;50657;48.830;2.282;2022-11-15T07:44:05;121.05;;;53.13;;
47353;SDS011;50657;48.830;2.282;2022-11-15T07:46:50;115.93;;;51.77;;
47353;SDS011;50657;48.830;2.282;2022-11-15T07:49:38;117.53;;;55.97;;
47353;SDS011;50657;48.830;2.282;2022-11-15T07:52:23;141.07;;;59.75;;
47353;SDS011;50657;48.830;2.282;2022-11-15T07:55:09;142.35;;;63.17;;
47353;SDS011;50657;48.830;2.282;2022-11-15T07:57:59;123.18;;;53.97;;
47353;SDS011;50657;48.830;2.282;2022-11-15T08:00:45;130.38;;;62.13;;
47353;SDS011;50657;48.830;2.282;2022-11-15T08:03:31;120.27;;;56.30;;
47353;SDS011;50657;48.830;2.282;2022-11-15T08:06:18;118.85;;;59.22;;
47353;SDS011;50657;48.830;2.282;2022-11-15T08:09:03;117.35;;;57.88;;
47353;SDS011;50657;48.830;2.282;2022-11-15T08:11:49;130.53;;;57.57;;
47353;SDS011;50657;48.830;2.282;2022-11-15T08:14:35;123.82;;;53.45;;
47353;SDS011;50657;48.830;2.282;2022-11-15T08:17:20;122.93;;;55.65;;
47353;SDS011;50657;48.830;2.282;2022-11-15T08:22:54;104.75;;;50.30;;
47353;SDS011;50657;48.830;2.282;2022-11-15T08:25:40;109.65;;;55.15;;
47353;SDS011;50657;48.830;2.282;2022-11-15T08:28:26;103.07;;;49.30;;
47353;SDS011;50657;48.830;2.282;2022-11-15T08:31:13;103.77;;;52.03;;
47353;SDS011;50657;48.830;2.282;2022-11-15T08:34:00;116.60;;;54.15;;
47353;SDS011;50657;48.830;2.282;2022-11-15T08:36:46;108.25;;;50.72;;
47353;SDS011;50657;48.830;2.282;2022-11-15T08:39:33;92.03;;;48.53;;
47353;SDS011;50657;48.830;2.282;2022-11-15T08:42:19;100.82;;;49.95;;
47353;SDS011;50657;48.830;2.282;2022-11-15T08:45:04;103.78;;;49.90;;
47353;SDS011;50657;48.830;2.282;2022-11-15T08:47:51;98.13;;;49.17;;
47353;SDS011;50657;48.830;2.282;2022-11-15T08:50:36;93.32;;;46.75;;
47353;SDS011;50657;48.830;2.282;2022-11-15T08:53:22;101.60;;;48.03;;
47353;SDS011;50657;48.830;2.282;2022-11-15T08:56:10;92.38;;;45.28;;
47353;SDS011;50657;48.830;2.282;2022-11-15T08:58:57;91.25;;;47.00;;
47353;SDS011;50657;48.830;2.282;2022-11-15T09:01:42;94.47;;;44.38;;
47353;SDS011;50657;48.830;2.282;2022-11-15T09:04:28;77.57;;;40.25;;
47353;SDS011;50657;48.830;2.282;2022-11-15T09:07:14;91.82;;;46.17;;
47353;SDS011;50657;48.830;2.282;2022-11-15T09:10:00;85.95;;;42.25;;
47353;SDS011;50657;48.830;2.282;2022-11-15T09:12:47;85.82;;;42.03;;
47353;SDS011;50657;48.830;2.282;2022-11-15T09:15:32;86.07;;;44.25;;
47353;SDS011;50657;48.830;2.282;2022-11-15T09:18:18;91.45;;;42.10;;
47353;SDS011;50657;48.830;2.282;2022-11-15T09:21:06;85.10;;;43.20;;
47353;SDS011;50657;48.830;2.282;2022-11-15T09:23:52;82.25;;;41.38;;
47353;SDS011;50657;48.830;2.282;2022-11-15T09:26:38;90.53;;;47.03;;
47353;SDS011;50657;48.830;2.282;2022-11-15T09:29:24;100.20;;;53.13;;
47353;SDS011;50657;48.830;2.282;2022-11-15T09:32:10;103.05;;;54.92;;
47353;SDS011;50657;48.830;2.282;2022-11-15T09:34:56;121.30;;;60.97;;
47353;SDS011;50657;48.830;2.282;2022-11-15T09:37:42;112.32;;;53.90;;
47353;SDS011;50657;48.830;2.282;2022-11-15T09:40:29;104.45;;;50.65;;
47353;SDS011;50657;48.830;2.282;2022-11-15T09:46:31;122.20;;;52.30;;
47353;SDS011;50657;48.830;2.282;2022-11-15T09:49:15;104.32;;;48.65;;
47353;SDS011;50657;48.830;2.282;2022-11-15T09:52:12;102.90;;;50.80;;
47353;SDS011;50657;48.830;2.282;2022-11-15T09:54:47;102.00;;;49.30;;
47353;SDS011;50657;48.830;2.282;2022-11-15T09:57:17;79.07;;;44.60;;
47353;SDS011;50657;48.830;2.282;2022-11-15T10:00:04;95.38;;;49.72;;
47353;SDS011;50657;48.830;2.282;2022-11-15T10:02:46;85.82;;;44.65;;
47353;SDS011;50657;48.830;2.282;2022-11-15T10:05:25;87.25;;;46.33;;
47353;SDS011;50657;48.830;2.282;2022-11-15T10:07:55;92.32;;;47.00;;
47353;SDS011;50657;48.830;2.282;2022-11-15T10:10:29;91.22;;;48.00;;
47353;SDS011;50657;48.830;2.282;2022-11-15T10:13:02;87.60;;;46.92;;
47353;SDS011;50657;48.830;2.282;2022-11-15T10:15:29;89.90;;;45.92;;
47353;SDS011;50657;48.830;2.282;2022-11-15T10:18:12;84.95;;;45.92;;
47353;SDS011;50657;48.830;2.282;2022-11-15T10:20:44;97.13;;;54.15;;
47353;SDS011;50657;48.830;2.282;2022-11-15T10:23:15;79.20;;;40.75;;
47353;SDS011;50657;48.830;2.282;2022-11-15T10:25:44;78.47;;;41.35;;
47353;SDS011;50657;48.830;2.282;2022-11-15T10:28:14;92.80;;;51.97;;
47353;SDS011;50657;48.830;2.282;2022-11-15T10:30:43;101.97;;;51.85;;
47353;SDS011;50657;48.830;2.282;2022-11-15T10:33:22;83.75;;;47.35;;
47353;SDS011;50657;48.830;2.282;2022-11-15T10:38:55;99.03;;;53.88;;
47353;SDS011;50657;48.830;2.282;2022-11-15T10:41:31;96.65;;;57.13;;
47353;SDS011;50657;48.830;2.282;2022-11-15T10:44:03;101.18;;;58.35;;
47353;SDS011;50657;48.830;2.282;2022-11-15T10:46:45;104.00;;;59.90;;
47353;SDS011;50657;48.830;2.282;2022-11-15T10:49:18;105.25;;;63.45;;
47353;SDS011;50657;48.830;2.282;2022-11-15T10:51:46;99.47;;;62.78;;
47353;SDS011;50657;48.830;2.282;2022-11-15T10:54:17;96.50;;;60.65;;
47353;SDS011;50657;48.830;2.282;2022-11-15T10:56:50;106.20;;;59.42;;
47353;SDS011;50657;48.830;2.282;2022-11-15T10:59:20;98.82;;;58.35;;
47353;SDS011;50657;48.830;2.282;2022-11-15T11:01:51;99.95;;;56.60;;
47353;SDS011;50657;48.830;2.282;2022-11-15T11:04:19;102.70;;;59.30;;
47353;SDS011;50657;48.830;2.282;2022-11-15T11:06:47;100.90;;;61.38;;
47353;SDS011;50657;48.830;2.282;2022-11-15T11:09:23;95.25;;;55.58;;
47353;SDS011;50657;48.830;2.282;2022-11-15T11:11:55;91.45;;;55.97;;
47353;SDS011;50657;48.830;2.282;2022-11-15T11:14:23;91.78;;;55.95;;
47353;SDS011;50657;48.830;2.282;2022-11-15T11:16:53;89.00;;;57.00;;
47353;SDS011;50657;48.830;2.282;2022-11-15T11:19:36;84.53;;;53.30;;
47353;SDS011;50657;48.830;2.282;2022-11-15T11:22:16;84.10;;;53.53;;
47353;SDS011;50657;48.830;2.282;2022-11-15T11:27:23;83.45;;;51.83;;
47353;SDS011;50657;48.830;2.282;2022-11-15T11:30:03;77.90;;;52.10;;
47353;SDS011;50657;48.830;2.282;2022-11-15T11:32:39;84.95;;;49.42;;
47353;SDS011;50657;48.830;2.282;2022-11-15T11:35:19;80.53;;;50.45;;
47353;SDS011;50657;48.830;2.282;2022-11-15T11:37:50;83.97;;;50.95;;
47353;SDS011;50657;48.830;2.282;2022-11-15T11:40:30;74.93;;;51.38;;
47353;SDS011;50657;48.830;2.282;2022-11-15T11:43:02;71.07;;;49.30;;
47353;SDS011;50657;48.830;2.282;2022-11-15T11:48:28;78.82;;;51.25;;
47353;SDS011;50657;48.830;2.282;2022-11-15T11:51:10;76.07;;;51.65;;
47353;SDS011;50657;48.830;2.282;2022-11-15T11:53:43;71.85;;;46.30;;
47353;SDS011;50657;48.830;2.282;2022-11-15T11:56:22;64.90;;;43.38;;
47353;SDS011;50657;48.830;2.282;2022-11-15T11:58:53;64.88;;;47.80;;
47353;SDS011;50657;48.830;2.282;2022-11-15T12:01:23;65.72;;;44.67;;
47353;SDS011;50657;48.830;2.282;2022-11-15T12:03:55;61.90;;;43.63;;
47353;SDS011;50657;48.830;2.282;2022-11-15T12:06:29;59.75;;;40.05;;
47353;SDS011;50657;48.830;2.282;2022-11-15T12:09:01;53.47;;;37.70;;
47353;SDS011;50657;48.830;2.282;2022-11-15T12:11:35;50.67;;;34.28;;
47353;SDS011;50657;48.830;2.282;2022-11-15T12:14:11;56.92;;;34.15;;
47353;SDS011;50657;48.830;2.282;2022-11-15T12:16:47;50.42;;;32.38;;
47353;SDS011;50657;48.830;2.282;2022-11-15T12:19:14;44.38;;;31.40;;
47353;SDS011;50657;48.830;2.282;2022-11-15T12:21:45;43.25;;;30.88;;
47353;SDS011;50657;48.830;2.282;2022-11-15T12:24:17;38.20;;;25.30;;
47353;SDS011;50657;48.830;2.282;2022-11-15T12:26:49;36.53;;;23.13;;
47353;SDS011;50657;48.830;2.282;2022-11-15T12:29:23;36.60;;;25.85;;
47353;SDS011;50657;48.830;2.282;2022-11-15T12:31:54;36.40;;;23.75;;
47353;SDS011;50657;48.830;2.282;2022-11-15T12:34:39;35.63;;;21.90;;
47353;SDS011;50657;48.830;2.282;2022-11-15T12:40:34;25.35;;;16.73;;
47353;SDS011;50657;48.830;2.282;2022-11-15T12:46:01;29.67;;;19.58;;
47353;SDS011;50657;48.830;2.282;2022-11-15T12:48:48;31.10;;;18.27;;
47353;SDS011;50657;48.830;2.282;2022-11-15T12:51:20;19.73;;;14.60;;
47353;SDS011;50657;48.830;2.282;2022-11-15T12:57:31;21.63;;;13.75;;
47353;SDS011;50657;48.830;2.282;2022-11-15T13:03:20;26.88;;;12.63;;
47353;SDS011;50657;48.830;2.282;2022-11-15T13:08:47;32.25;;;12.35;;
47353;SDS011;50657;48.830;2.282;2022-11-15T13:17:27;13.07;;;8.68;;
47353;SDS011;50657;48.830;2.282;2022-11-15T13:19:59;11.73;;;7.97;;
47353;SDS011;50657;48.830;2.282;2022-11-15T13:22:43;14.68;;;7.57;;
47353;SDS011;50657;48.830;2.282;2022-11-15T13:25:18;11.05;;;6.93;;
47353;SDS011;50657;48.830;2.282;2022-11-15T13:27:51;12.98;;;6.75;;
47353;SDS011;50657;48.830;2.282;2022-11-15T13:30:21;8.98;;;7.18;;
47353;SDS011;50657;48.830;2.282;2022-11-15T13:32:50;11.90;;;6.50;;
47353;SDS011;50657;48.830;2.282;2022-11-15T13:35:20;11.43;;;6.50;;
47353;SDS011;50657;48.830;2.282;2022-11-15T13:37:48;10.68;;;6.18;;
47353;SDS011;50657;48.830;2.282;2022-11-15T13:40:20;9.00;;;4.47;;
47353;SDS011;50657;48.830;2.282;2022-11-15T13:42:55;7.70;;;5.75;;
47353;SDS011;50657;48.830;2.282;2022-11-15T13:45:25;7.63;;;4.82;;
47353;SDS011;50657;48.830;2.282;2022-11-15T13:47:53;9.20;;;5.05;;
47353;SDS011;50657;48.830;2.282;2022-11-15T13:50:23;6.13;;;4.25;;
47353;SDS011;50657;48.830;2.282;2022-11-15T13:52:53;5.82;;;3.78;;
47353;SDS011;50657;48.830;2.282;2022-11-15T13:55:22;6.43;;;4.22;;
47353;SDS011;50657;48.830;2.282;2022-11-15T13:57:51;4.05;;;2.95;;
47353;SDS011;50657;48.830;2.282;2022-11-15T14:00:35;6.05;;;2.10;;
47353;SDS011;50657;48.830;2.282;2022-11-15T14:03:08;3.47;;;1.40;;
47353;SDS011;50657;48.830;2.282;2022-11-15T14:05:42;4.80;;;1.23;;
47353;SDS011;50657;48.830;2.282;2022-11-15T14:08:21;5.15;;;2.35;;
47353;SDS011;50657;48.830;2.282;2022-11-15T14:11:04;3.92;;;1.83;;
47353;SDS011;50657;48.830;2.282;2022-11-15T14:13:33;2.60;;;1.65;;
47353;SDS011;50657;48.830;2.282;2022-11-15T14:16:16;6.25;;;1.50;;
47353;SDS011;50657;48.830;2.282;2022-11-15T14:18:46;14.27;;;2.13;;
47353;SDS011;50657;48.830;2.282;2022-11-15T14:21:14;1.65;;;1.05;;
47353;SDS011;50657;48.830;2.282;2022-11-15T14:23:42;3.20;;;1.65;;
47353;SDS011;50657;48.830;2.282;2022-11-15T14:26:25;1.85;;;0.80;;
47353;SDS011;50657;48.830;2.282;2022-11-15T14:28:54;0.80;;;0.43;;
47353;SDS011;50657;48.830;2.282;2022-11-15T14:31:23;2.03;;;1.48;;
47353;SDS011;50657;48.830;2.282;2022-11-15T14:33:50;2.28;;;0.40;;
47353;SDS011;50657;48.830;2.282;2022-11-15T14:36:18;2.80;;;1.65;;
47353;SDS011;50657;48.830;2.282;2022-11-15T14:38:46;1.42;;;0.65;;
47353;SDS011;50657;48.830;2.282;2022-11-15T14:41:17;1.83;;;0.43;;
47353;SDS011;50657;48.830;2.282;2022-11-15T14:43:46;7.18;;;0.55;;
47353;SDS011;50657;48.830;2.282;2022-11-15T14:46:14;2.15;;;1.02;;
47353;SDS011;50657;48.830;2.282;2022-11-15T14:48:42;2.88;;;0.50;;
47353;SDS011;50657;48.830;2.282;2022-11-15T14:51:10;5.60;;;0.60;;
47353;SDS011;50657;48.830;2.282;2022-11-15T14:53:39;2.17;;;0.40;;
47353;SDS011;50657;48.830;2.282;2022-11-15T14:56:07;1.77;;;0.30;;
47353;SDS011;50657;48.830;2.282;2022-11-15T14:58:34;1.48;;;0.70;;
47353;SDS011;50657;48.830;2.282;2022-11-15T15:01:01;3.50;;;0.50;;
47353;SDS011;50657;48.830;2.282;2022-11-15T15:03:29;1.33;;;0.55;;
47353;SDS011;50657;48.830;2.282;2022-11-15T15:05:57;0.90;;;0.50;;
47353;SDS011;50657;48.830;2.282;2022-11-15T15:08:24;1.58;;;0.30;;
47353;SDS011;50657;48.830;2.282;2022-11-15T15:10:51;0.88;;;0.25;;
47353;SDS011;50657;48.830;2.282;2022-11-15T15:13:18;0.60;;;0.20;;
47353;SDS011;50657;48.830;2.282;2022-11-15T15:15:47;1.50;;;0.65;;
47353;SDS011;50657;48.830;2.282;2022-11-15T15:18:15;4.18;;;0.38;;
47353;SDS011;50657;48.830;2.282;2022-11-15T15:20:42;4.22;;;0.38;;
47353;SDS011;50657;48.830;2.282;2022-11-15T15:23:15;1.80;;;0.40;;
47353;SDS011;50657;48.830;2.282;2022-11-15T15:25:43;4.57;;;0.30;;
47353;SDS011;50657;48.830;2.282;2022-11-15T15:28:11;1.45;;;0.20;;
47353;SDS011;50657;48.830;2.282;2022-11-15T15:30:38;0.57;;;0.40;;
47353;SDS011;50657;48.830;2.282;2022-11-15T15:33:05;3.30;;;0.52;;
47353;SDS011;50657;48.830;2.282;2022-11-15T15:35:33;3.78;;;1.10;;
47353;SDS011;50657;48.830;2.282;2022-11-15T15:38:01;2.53;;;0.90;;
47353;SDS011;50657;48.830;2.282;2022-11-15T15:40:30;2.00;;;1.73;;
47353;SDS011;50657;48.830;2.282;2022-11-15T15:42:58;3.95;;;0.55;;
47353;SDS011;50657;48.830;2.282;2022-11-15T15:45:26;4.60;;;0.73;;
47353;SDS011;50657;48.830;2.282;2022-11-15T15:47:53;5.88;;;0.85;;
47353;SDS011;50657;48.830;2.282;2022-11-15T15:50:21;4.80;;;0.57;;
47353;SDS011;50657;48.830;2.282;2022-11-15T15:52:50;1.88;;;0.50;;
47353;SDS011;50657;48.830;2.282;2022-11-15T15:55:19;3.75;;;0.93;;
47353;SDS011;50657;48.830;2.282;2022-11-15T15:57:48;4.68;;;1.63;;
47353;SDS011;50657;48.830;2.282;2022-11-15T16:00:16;2.72;;;1.33;;
47353;SDS011;50657;48.830;2.282;2022-11-15T16:02:45;3.38;;;1.13;;
47353;SDS011;50657;48.830;2.282;2022-11-15T16:05:12;1.60;;;1.27;;
47353;SDS011;50657;48.830;2.282;2022-11-15T16:07:40;0.98;;;0.60;;
47353;SDS011;50657;48.830;2.282;2022-11-15T16:10:14;6.85;;;0.95;;
47353;SDS011;50657;48.830;2.282;2022-11-15T16:12:44;2.50;;;0.95;;
47353;SDS011;50657;48.830;2.282;2022-11-15T16:15:13;1.67;;;0.90;;
47353;SDS011;50657;48.830;2.282;2022-11-15T16:17:43;4.00;;;0.90;;
47353;SDS011;50657;48.830;2.282;2022-11-15T16:20:20;5.88;;;1.60;;
47353;SDS011;50657;48.830;2.282;2022-11-15T16:22:52;8.45;;;1.63;;
47353;SDS011;50657;48.830;2.282;2022-11-15T16:25:19;0.98;;;0.90;;
47353;SDS011;50657;48.830;2.282;2022-11-15T16:27:46;3.05;;;1.63;;
47353;SDS011;50657;48.830;2.282;2022-11-15T16:30:15;1.80;;;1.15;;
47353;SDS011;50657;48.830;2.282;2022-11-15T16:32:44;2.67;;;1.40;;
47353;SDS011;50657;48.830;2.282;2022-11-15T16:35:11;3.03;;;1.45;;
47353;SDS011;50657;48.830;2.282;2022-11-15T16:37:38;3.60;;;0.73;;
47353;SDS011;50657;48.830;2.282;2022-11-15T16:40:09;3.30;;;0.90;;
47353;SDS011;50657;48.830;2.282;2022-11-15T16:42:48;1.33;;;1.10;;
47353;SDS011;50657;48.830;2.282;2022-11-15T16:45:17;2.35;;;0.70;;
47353;SDS011;50657;48.830;2.282;2022-11-15T16:47:47;1.42;;;0.50;;
47353;SDS011;50657;48.830;2.282;2022-11-15T16:50:19;1.85;;;0.77;;